createdAt,value
2023-01-23T00:01:04.018Z,7.38
2023-01-23T00:03:53.628Z,7.50
2023-01-23T00:06:43.606Z,7.40
2023-01-23T00:09:30.482Z,7.35
2023-01-23T00:12:17.296Z,8.20
2023-01-23T00:15:06.584Z,8.18
2023-01-23T00:17:53.657Z,7.85
2023-01-23T00:20:43.726Z,7.63
2023-01-23T00:23:39.324Z,7.85
2023-01-23T00:26:31.392Z,7.03
2023-01-23T00:29:18.339Z,6.85
2023-01-23T00:32:05.302Z,7.20
2023-01-23T00:34:53.549Z,7.53
2023-01-23T00:37:40.487Z,6.97
2023-01-23T00:40:27.336Z,6.88
2023-01-23T00:43:14.119Z,7.68
2023-01-23T00:46:02.479Z,8.05
2023-01-23T00:48:49.415Z,7.53
2023-01-23T00:51:36.418Z,7.38
2023-01-23T00:54:26.314Z,6.90
2023-01-23T00:57:13.195Z,7.35
2023-01-23T01:00:00.175Z,7.97
2023-01-23T01:02:50.076Z,6.20
2023-01-23T01:05:37.064Z,7.30
2023-01-23T01:08:26.045Z,6.72
2023-01-23T01:11:15.639Z,7.20
2023-01-23T01:14:05.576Z,6.60
2023-01-23T01:16:52.442Z,7.05
2023-01-23T01:19:39.297Z,7.32
2023-01-23T01:22:29.465Z,7.28
2023-01-23T01:25:19.212Z,6.95
2023-01-23T01:28:06.371Z,6.60
2023-01-23T01:30:53.252Z,7.63
2023-01-23T01:33:41.282Z,6.82
2023-01-23T01:36:28.191Z,6.80
2023-01-23T01:39:15.037Z,6.80
2023-01-23T01:42:01.978Z,7.38
2023-01-23T01:45:00.474Z,6.78
2023-01-23T01:47:47.466Z,7.82
2023-01-23T01:50:35.333Z,7.30
2023-01-23T01:53:23.417Z,7.60
2023-01-23T01:56:12.785Z,7.35
2023-01-23T02:01:47.824Z,6.72
2023-01-23T02:04:44.686Z,7.25
2023-01-23T02:07:43.138Z,7.18
2023-01-23T02:10:30.085Z,6.97
2023-01-23T02:13:36.946Z,6.47
2023-01-23T02:16:29.533Z,7.35
2023-01-23T02:19:40.270Z,6.90
2023-01-23T02:22:41.859Z,7.03
2023-01-23T02:25:37.647Z,6.75
2023-01-23T02:28:36.814Z,7.60
2023-01-23T02:31:23.793Z,6.88
2023-01-23T02:34:12.431Z,6.75
2023-01-23T02:36:59.693Z,6.88
2023-01-23T02:40:07.484Z,7.10
2023-01-23T02:42:55.426Z,7.38
2023-01-23T02:45:42.463Z,6.55
2023-01-23T02:48:29.293Z,7.57
2023-01-23T02:51:17.658Z,6.78
2023-01-23T02:54:05.171Z,7.83
2023-01-23T02:56:54.011Z,7.25
2023-01-23T02:59:59.385Z,7.20
2023-01-23T03:02:48.551Z,6.80
2023-01-23T03:05:38.489Z,7.25
2023-01-23T03:08:33.340Z,6.63
2023-01-23T03:11:20.294Z,6.78
2023-01-23T03:14:10.382Z,8.15
2023-01-23T03:16:58.742Z,7.50
2023-01-23T03:19:45.952Z,7.17
2023-01-23T03:22:33.740Z,7.43
2023-01-23T03:25:20.777Z,6.85
2023-01-23T03:28:27.573Z,7.75
2023-01-23T03:31:14.696Z,7.53
2023-01-23T03:34:01.759Z,7.15
2023-01-23T03:36:48.614Z,7.93
2023-01-23T03:39:54.106Z,8.27
2023-01-23T03:42:41.046Z,8.57
2023-01-23T03:45:28.133Z,7.57
2023-01-23T03:48:15.128Z,7.25
2023-01-23T03:51:02.014Z,7.22
2023-01-23T03:53:49.111Z,7.40
2023-01-23T03:56:36.155Z,7.07
2023-01-23T03:59:36.510Z,7.22
2023-01-23T04:02:24.662Z,7.63
2023-01-23T04:05:14.643Z,7.43
2023-01-23T04:08:04.268Z,7.13
2023-01-23T04:10:53.822Z,6.82
2023-01-23T04:13:40.838Z,6.38
2023-01-23T04:16:28.826Z,7.28
2023-01-23T04:19:19.645Z,6.82
2023-01-23T04:22:06.575Z,7.63
2023-01-23T04:24:53.370Z,8.25
2023-01-23T04:27:41.739Z,8.32
2023-01-23T04:30:28.632Z,8.17
2023-01-23T04:33:16.570Z,7.13
2023-01-23T04:36:05.766Z,7.30
2023-01-23T04:38:52.610Z,7.50
2023-01-23T04:41:39.466Z,8.73
2023-01-23T04:44:27.358Z,7.53
2023-01-23T04:47:16.436Z,7.05
2023-01-23T04:50:04.086Z,7.30
2023-01-23T04:52:52.127Z,8.05
2023-01-23T04:55:38.990Z,7.22
2023-01-23T04:58:28.098Z,7.18
2023-01-23T05:01:23.169Z,7.78
2023-01-23T05:04:16.844Z,7.32
2023-01-23T05:07:08.950Z,7.30
2023-01-23T05:10:06.035Z,8.02
2023-01-23T05:12:55.791Z,7.65
2023-01-23T05:15:45.271Z,7.30
2023-01-23T05:18:52.450Z,7.35
2023-01-23T05:21:48.025Z,7.45
2023-01-23T05:24:52.316Z,6.93
2023-01-23T05:27:50.130Z,7.43
2023-01-23T05:30:39.584Z,7.68
2023-01-23T05:33:33.205Z,7.82
2023-01-23T05:36:25.638Z,8.60
2023-01-23T05:39:15.735Z,7.20
2023-01-23T05:45:41.077Z,7.18
2023-01-23T05:48:43.624Z,7.97
2023-01-23T05:55:13.882Z,7.20
2023-01-23T05:58:16.115Z,7.60
2023-01-23T06:04:11.707Z,7.68
2023-01-23T06:07:16.354Z,6.75
2023-01-23T06:10:39.805Z,8.25
2023-01-23T06:13:37.845Z,7.72
2023-01-23T06:16:56.210Z,8.40
2023-01-23T06:19:43.103Z,10.30
2023-01-23T06:22:31.509Z,9.10
2023-01-23T06:25:20.685Z,8.70
2023-01-23T06:28:09.034Z,9.15
2023-01-23T06:31:00.873Z,8.60
2023-01-23T06:33:51.617Z,8.77
2023-01-23T06:36:40.812Z,8.80
2023-01-23T06:39:27.620Z,8.13
2023-01-23T06:42:14.424Z,8.30
2023-01-23T06:45:01.240Z,7.97
2023-01-23T06:47:53.618Z,8.60
2023-01-23T06:57:51.617Z,7.90
2023-01-23T07:01:02.122Z,7.65
2023-01-23T07:04:09.674Z,7.45
2023-01-23T07:07:50.544Z,7.78
2023-01-23T07:10:40.751Z,9.50
2023-01-23T07:14:05.287Z,8.38
2023-01-23T07:17:07.275Z,7.93
2023-01-23T07:20:12.243Z,8.15
2023-01-23T07:29:45.946Z,8.88
2023-01-23T07:32:57.498Z,8.63
2023-01-23T07:35:57.222Z,7.75
2023-01-23T07:39:33.496Z,7.45
2023-01-23T07:47:22.271Z,8.63
2023-01-23T07:54:23.418Z,8.27
2023-01-23T07:57:56.401Z,8.52
2023-01-23T08:01:03.806Z,7.22
2023-01-23T08:11:48.602Z,8.10
2023-01-23T08:15:13.614Z,7.15
2023-01-23T08:18:48.285Z,7.18
2023-01-23T08:22:07.374Z,7.55
2023-01-23T08:25:17.043Z,7.53
2023-01-23T08:39:42.035Z,8.15
2023-01-23T09:17:42.512Z,7.93
2023-01-23T09:20:29.351Z,8.02
2023-01-23T09:23:16.352Z,8.10
2023-01-23T09:26:05.530Z,7.68
2023-01-23T09:28:52.382Z,7.57
2023-01-23T09:31:39.243Z,8.00
2023-01-23T09:34:26.111Z,8.32
2023-01-23T09:37:12.990Z,8.30
2023-01-23T09:40:04.727Z,8.43
2023-01-23T09:42:52.131Z,8.70
2023-01-23T09:45:39.918Z,8.27
2023-01-23T09:48:31.110Z,7.35
2023-01-23T09:51:34.497Z,7.93
2023-01-23T09:54:44.692Z,8.48
2023-01-23T09:57:54.777Z,8.30
2023-01-23T10:00:41.643Z,8.90
2023-01-23T10:03:30.164Z,7.88
2023-01-23T10:06:23.557Z,8.05
2023-01-23T10:09:39.475Z,8.60
2023-01-23T10:12:42.712Z,8.50
2023-01-23T10:16:07.374Z,8.73
2023-01-23T10:19:31.908Z,7.45
2023-01-23T10:22:39.282Z,8.73
2023-01-23T10:25:28.060Z,8.00
2023-01-23T10:28:32.002Z,8.75
2023-01-23T10:31:58.651Z,7.88
2023-01-23T10:34:51.920Z,8.45
2023-01-23T10:37:52.640Z,8.60
2023-01-23T10:40:57.932Z,9.18
2023-01-23T10:43:46.890Z,9.15
2023-01-23T10:46:35.817Z,9.60
2023-01-23T10:49:49.086Z,8.57
2023-01-23T10:52:45.036Z,8.32
2023-01-23T10:55:31.947Z,7.20
2023-01-23T10:58:37.347Z,8.10
2023-01-23T11:01:30.319Z,8.20
2023-01-23T11:04:22.065Z,8.45
2023-01-23T11:07:16.057Z,8.55
2023-01-23T11:10:12.518Z,8.60
2023-01-23T11:13:00.913Z,9.48
2023-01-23T11:15:48.769Z,8.50
2023-01-23T11:18:42.690Z,8.25
2023-01-23T11:21:33.609Z,8.52
2023-01-23T11:24:39.763Z,8.77
2023-01-23T11:27:39.609Z,8.60
2023-01-23T11:30:42.130Z,8.63
2023-01-23T11:33:56.158Z,7.82
2023-01-23T11:37:16.943Z,8.23
2023-01-23T11:40:31.071Z,8.32
2023-01-23T11:43:21.402Z,7.97
2023-01-23T11:46:45.427Z,8.57
2023-01-23T11:50:12.902Z,8.95
2023-01-23T11:53:15.004Z,8.82
2023-01-23T11:56:31.462Z,8.05
2023-01-23T12:00:03.074Z,9.15
2023-01-23T12:27:40.589Z,9.20
2023-01-23T12:34:49.181Z,7.20
2023-01-23T12:37:48.611Z,7.18
2023-01-23T12:41:29.531Z,7.18
2023-01-23T12:56:59.472Z,6.72
2023-01-23T13:01:02.836Z,6.80
2023-01-23T13:11:46.580Z,6.30
2023-01-23T13:18:03.762Z,6.25
2023-01-23T13:21:32.982Z,6.20
2023-01-23T13:28:44.671Z,6.22
2023-01-23T13:32:12.255Z,6.63
2023-01-23T13:35:34.240Z,5.82
2023-01-23T13:38:23.774Z,6.28
2023-01-23T13:41:24.540Z,6.13
2023-01-23T13:44:45.991Z,6.50
2023-01-23T14:24:57.403Z,5.90
2023-01-23T14:27:54.789Z,5.53
2023-01-23T14:30:42.835Z,6.00
2023-01-23T14:33:44.288Z,5.65
2023-01-23T14:36:33.860Z,5.82
2023-01-23T14:39:22.919Z,6.00
2023-01-23T14:42:23.623Z,6.25
2023-01-23T14:45:23.590Z,5.80
2023-01-23T14:48:15.282Z,5.65
2023-01-23T14:51:32.982Z,5.13
2023-01-23T14:54:23.320Z,5.53
2023-01-23T14:57:12.555Z,5.85
2023-01-23T15:03:00.697Z,6.63
2023-01-23T15:05:59.460Z,5.30
2023-01-23T15:08:49.665Z,5.95
2023-01-23T15:11:39.198Z,6.03
2023-01-23T15:14:40.247Z,5.55
2023-01-23T15:17:28.053Z,5.75
2023-01-23T15:20:27.419Z,5.53
2023-01-23T15:23:25.104Z,5.65
2023-01-23T15:26:15.037Z,5.32
2023-01-23T15:29:10.925Z,5.93
2023-01-23T15:31:58.367Z,5.88
2023-01-23T15:34:52.336Z,5.43
2023-01-23T15:37:39.109Z,5.80
2023-01-23T15:40:27.851Z,5.80
2023-01-23T15:43:18.685Z,6.22
2023-01-23T15:46:05.547Z,6.05
2023-01-23T15:48:53.523Z,5.70
2023-01-23T15:51:40.358Z,5.80
2023-01-23T15:54:35.847Z,6.18
2023-01-23T15:57:23.074Z,6.03
2023-01-23T16:00:29.450Z,6.30
2023-01-23T16:03:16.303Z,6.18
2023-01-23T16:06:06.352Z,5.75
2023-01-23T16:09:00.833Z,6.03
2023-01-23T16:11:52.173Z,6.45
2023-01-23T16:14:39.026Z,6.22
2023-01-23T16:17:26.100Z,6.32
2023-01-23T16:20:18.008Z,6.15
2023-01-23T16:23:15.274Z,6.03
2023-01-23T16:26:02.686Z,7.32
2023-01-23T16:28:49.698Z,7.03
2023-01-23T16:31:37.969Z,6.82
2023-01-23T16:34:26.115Z,5.93
2023-01-23T16:37:15.117Z,6.35
2023-01-23T16:40:02.707Z,6.20
2023-01-23T16:42:51.329Z,6.10
2023-01-23T16:45:38.136Z,6.90
2023-01-23T16:48:27.712Z,7.25
2023-01-23T16:51:19.329Z,6.38
2023-01-23T16:54:18.395Z,6.22
2023-01-23T16:57:05.783Z,6.85
2023-01-23T17:00:04.069Z,6.10
2023-01-23T17:02:53.511Z,7.10
2023-01-23T17:05:43.316Z,7.63
2023-01-23T17:08:30.197Z,7.35
2023-01-23T17:11:24.326Z,7.72
2023-01-23T17:14:17.548Z,7.55
2023-01-23T17:17:10.650Z,7.03
2023-01-23T17:19:57.954Z,7.53
2023-01-23T17:22:45.550Z,7.95
2023-01-23T17:25:36.067Z,8.00
2023-01-23T17:28:26.703Z,8.30
2023-01-23T17:31:22.993Z,7.45
2023-01-23T17:34:19.133Z,7.63
2023-01-23T17:37:13.504Z,7.32
2023-01-23T17:40:00.400Z,7.75
2023-01-23T17:42:47.375Z,6.82
2023-01-23T17:45:37.871Z,7.72
2023-01-23T17:48:41.376Z,7.22
2023-01-23T17:51:28.188Z,7.65
2023-01-23T17:54:19.323Z,7.65
2023-01-23T18:00:07.657Z,7.95
2023-01-23T18:03:01.382Z,8.23
2023-01-23T18:05:49.499Z,7.95
2023-01-23T18:08:42.254Z,7.68
2023-01-23T18:11:30.444Z,7.50
2023-01-23T18:14:42.232Z,7.75
2023-01-23T18:17:37.384Z,7.50
2023-01-23T18:20:25.417Z,6.43
2023-01-23T18:23:13.046Z,7.30
2023-01-23T18:26:24.516Z,7.85
2023-01-23T18:29:20.596Z,7.78
2023-01-23T18:32:28.261Z,7.72
2023-01-23T18:35:27.045Z,7.55
2023-01-23T18:38:32.607Z,6.43
2023-01-23T18:41:22.132Z,7.20
2023-01-23T18:44:20.418Z,6.97
2023-01-23T18:47:14.962Z,6.30
2023-01-23T18:50:02.206Z,8.07
2023-01-23T18:53:12.582Z,7.38
2023-01-23T18:56:22.781Z,7.57
2023-01-23T18:59:30.468Z,7.07
2023-01-23T19:02:50.408Z,7.80
2023-01-23T19:05:43.255Z,7.38
2023-01-23T19:08:32.745Z,7.03
2023-01-23T19:11:34.031Z,7.80
2023-01-23T19:15:31.811Z,9.02
2023-01-23T19:19:15.256Z,7.55
2023-01-23T19:22:28.008Z,7.13
2023-01-23T19:25:27.095Z,8.38
2023-01-23T19:29:20.869Z,7.93
2023-01-23T19:32:05.464Z,7.97
2023-01-23T19:35:26.856Z,6.57
2023-01-23T19:38:22.674Z,7.47
2023-01-23T19:44:33.475Z,7.35
2023-01-23T19:47:20.397Z,7.72
2023-01-23T19:50:17.110Z,8.65
2023-01-23T19:53:09.967Z,7.28
2023-01-23T19:56:10.141Z,7.97
2023-01-23T19:58:56.962Z,7.90
2023-01-23T20:01:48.343Z,7.75
2023-01-23T20:04:35.223Z,7.50
2023-01-23T20:07:22.193Z,7.25
2023-01-23T20:10:09.957Z,7.40
2023-01-23T20:12:56.881Z,6.75
2023-01-23T20:15:43.728Z,7.15
2023-01-23T20:18:30.623Z,7.63
2023-01-23T20:21:18.700Z,7.28
2023-01-23T20:24:07.403Z,7.95
2023-01-23T20:26:55.041Z,6.88
2023-01-23T20:29:42.029Z,6.95
2023-01-23T20:32:32.454Z,6.40
2023-01-23T20:35:19.464Z,7.13
2023-01-23T20:38:08.837Z,7.10
2023-01-23T20:43:45.332Z,6.18
2023-01-23T20:46:32.665Z,7.10
2023-01-23T20:49:19.534Z,6.70
2023-01-23T20:52:25.851Z,7.40
2023-01-23T20:55:12.765Z,7.50
2023-01-23T20:58:18.501Z,7.75
2023-01-23T21:01:08.158Z,6.43
2023-01-23T21:03:55.182Z,7.53
2023-01-23T21:06:42.156Z,7.03
2023-01-23T21:09:29.593Z,7.15
2023-01-23T21:12:16.474Z,6.63
2023-01-23T21:15:03.351Z,7.63
2023-01-23T21:17:50.157Z,6.75
2023-01-23T21:20:39.277Z,7.03
2023-01-23T21:23:26.720Z,6.07
2023-01-23T21:26:13.573Z,7.25
2023-01-23T21:29:01.748Z,5.95
2023-01-23T21:31:49.214Z,6.00
2023-01-23T21:34:36.132Z,7.43
2023-01-23T21:37:23.158Z,7.03
2023-01-23T21:40:10.609Z,6.60
2023-01-23T21:42:57.389Z,6.95
2023-01-23T21:45:44.186Z,7.38
2023-01-23T21:48:32.470Z,8.18
2023-01-23T21:51:21.188Z,6.65
2023-01-23T21:54:10.574Z,7.55
2023-01-23T22:00:04.169Z,6.53
2023-01-23T22:02:51.053Z,7.10
2023-01-23T22:05:37.878Z,6.85
2023-01-23T22:08:24.811Z,7.20
2023-01-23T22:11:11.974Z,7.10
2023-01-23T22:13:59.405Z,7.32
2023-01-23T22:16:49.507Z,7.22
2023-01-23T22:19:36.941Z,7.93
2023-01-23T22:22:23.832Z,7.40
2023-01-23T22:25:10.721Z,7.47
2023-01-23T22:27:57.551Z,7.50
2023-01-23T22:30:44.363Z,7.03
2023-01-23T22:33:40.119Z,6.57
2023-01-23T22:36:27.498Z,7.30
2023-01-23T22:39:16.096Z,7.50
2023-01-23T22:42:02.980Z,6.90
2023-01-23T22:44:49.883Z,7.47
2023-01-23T22:47:36.725Z,6.85
2023-01-23T22:50:23.740Z,7.28
2023-01-23T22:53:12.729Z,7.40
2023-01-23T22:55:59.496Z,7.03
2023-01-23T22:58:47.446Z,6.75
2023-01-23T23:01:34.479Z,7.25
2023-01-23T23:04:22.308Z,7.45
2023-01-23T23:07:09.203Z,8.05
2023-01-23T23:09:56.040Z,7.10
2023-01-23T23:12:42.804Z,7.57
2023-01-23T23:15:29.858Z,7.38
2023-01-23T23:18:16.642Z,8.13
2023-01-23T23:21:06.209Z,7.70
2023-01-23T23:23:57.218Z,7.30
2023-01-23T23:26:44.095Z,8.15
2023-01-23T23:29:30.932Z,6.68
2023-01-23T23:32:17.813Z,7.40
2023-01-23T23:35:05.027Z,7.18
2023-01-23T23:37:51.901Z,6.93
2023-01-23T23:40:39.215Z,7.20
2023-01-23T23:43:26.578Z,7.45
2023-01-23T23:46:14.338Z,7.53
2023-01-23T23:49:01.222Z,7.22
2023-01-23T23:51:47.966Z,6.85
2023-01-23T23:54:34.726Z,6.70
2023-01-23T23:57:21.476Z,7.55
